Time;durP1;ratioP1;P1;durP2;ratioP2;P2;SDS_P1;SDS_P2;PMS_P1;PMS_P2;Temp;Humidity;BMP_temperature;BMP_pressure;BME280_temperature;BME280_humidity;BME280_pressure;Samples;Min_cycle;Max_cycle;Signal;HPM_P1;HPM_P2
2021/12/06 00:01:09;;;;;;;16.70;9.13;;;;;;;;;;4988938;28;20096;-73
2021/12/06 00:03:48;;;;;;;14.45;8.52;;;;;;;;;;4990231;28;20038;-73
2021/12/06 00:06:14;;;;;;;14.73;8.15;;;;;;;;;;4988997;28;20121;-72
2021/12/06 00:08:40;;;;;;;13.35;8.55;;;;;;;;;;4987510;28;20172;-73
2021/12/06 00:11:09;;;;;;;16.95;8.82;;;;;;;;;;4988476;28;20032;-73
2021/12/06 00:13:36;;;;;;;20.23;9.45;;;;;;;;;;4990143;28;20107;-72
2021/12/06 00:16:06;;;;;;;14.18;8.30;;;;;;;;;;4988733;28;20034;-73
2021/12/06 00:18:31;;;;;;;15.55;9.02;;;;;;;;;;4989171;28;20022;-73
2021/12/06 00:20:57;;;;;;;14.85;8.48;;;;;;;;;;4989774;28;20117;-71
2021/12/06 00:23:22;;;;;;;13.02;8.07;;;;;;;;;;4990259;28;20129;-73
2021/12/06 00:25:47;;;;;;;14.52;8.63;;;;;;;;;;4989226;28;20027;-73
2021/12/06 00:28:13;;;;;;;11.07;7.30;;;;;;;;;;4990968;28;20085;-73
2021/12/06 00:30:38;;;;;;;11.18;6.90;;;;;;;;;;4988765;28;20046;-73
2021/12/06 00:33:03;;;;;;;11.75;7.05;;;;;;;;;;4986558;28;20489;-73
2021/12/06 00:35:29;;;;;;;10.45;6.40;;;;;;;;;;4989223;28;20039;-73
2021/12/06 00:38:00;;;;;;;11.00;6.55;;;;;;;;;;4988797;28;20493;-73
2021/12/06 00:40:28;;;;;;;10.27;6.05;;;;;;;;;;4991967;28;20042;-73
2021/12/06 00:42:54;;;;;;;10.57;5.82;;;;;;;;;;4992235;28;20034;-73
2021/12/06 00:45:19;;;;;;;7.80;5.60;;;;;;;;;;4994213;28;20400;-73
2021/12/06 00:47:45;;;;;;;12.45;6.18;;;;;;;;;;4993598;28;20469;-72
2021/12/06 00:50:10;;;;;;;9.60;5.47;;;;;;;;;;4991848;28;20385;-73
2021/12/06 00:52:35;;;;;;;10.35;5.65;;;;;;;;;;4974485;28;20113;-72
2021/12/06 00:55:01;;;;;;;9.60;6.10;;;;;;;;;;4986541;28;20034;-72
2021/12/06 00:57:26;;;;;;;10.73;6.22;;;;;;;;;;4984622;28;20421;-72
2021/12/06 00:59:51;;;;;;;9.80;5.63;;;;;;;;;;4986189;28;20381;-72
2021/12/06 01:02:17;;;;;;;10.48;5.80;;;;;;;;;;4992056;28;20061;-73
2021/12/06 01:04:43;;;;;;;9.25;5.82;;;;;;;;;;4985401;28;20109;-73
2021/12/06 01:07:08;;;;;;;7.75;5.50;;;;;;;;;;5000985;28;20477;-73
2021/12/06 01:09:34;;;;;;;8.40;5.35;;;;;;;;;;5008498;28;20037;-73
2021/12/06 01:11:59;;;;;;;9.07;4.88;;;;;;;;;;4988319;28;20540;-73
2021/12/06 01:14:25;;;;;;;11.05;5.65;;;;;;;;;;4981582;28;20042;-72
2021/12/06 01:16:51;;;;;;;8.80;4.75;;;;;;;;;;4984596;28;20392;-73
2021/12/06 01:19:17;;;;;;;8.82;4.40;;;;;;;;;;4980734;28;20109;-73
2021/12/06 01:21:49;;;;;;;11.63;5.85;;;;;;;;;;4989425;28;20461;-73
2021/12/06 01:24:18;;;;;;;8.82;4.50;;;;;;;;;;4991925;28;20113;-72
2021/12/06 01:27:32;;;;;;;7.00;4.43;;;;;;;;;;4984010;28;20505;-72
2021/12/06 01:29:49;;;;;;;10.00;4.72;;;;;;;;;;4977548;28;20501;-73
2021/12/06 01:40:20;;;;;;;8.63;5.40;;;;;;;;;;4990886;28;20120;-73
2021/12/06 01:42:45;;;;;;;9.93;4.75;;;;;;;;;;4984599;28;20030;-73
2021/12/06 01:45:11;;;;;;;8.85;5.05;;;;;;;;;;4990674;28;20033;-73
2021/12/06 01:47:37;;;;;;;12.02;6.45;;;;;;;;;;4985101;28;20050;-71
2021/12/06 01:50:11;;;;;;;9.93;5.32;;;;;;;;;;4990734;28;20026;-73
2021/12/06 01:52:41;;;;;;;8.68;5.90;;;;;;;;;;4986512;28;20085;-73
2021/12/06 01:55:09;;;;;;;9.35;5.47;;;;;;;;;;4988537;28;20434;-72
2021/12/06 01:57:34;;;;;;;8.50;5.55;;;;;;;;;;4986405;28;20030;-73
2021/12/06 02:00:00;;;;;;;12.40;6.35;;;;;;;;;;4986825;28;20638;-73
2021/12/06 02:02:25;;;;;;;9.23;5.97;;;;;;;;;;4973696;28;20046;-72
2021/12/06 02:04:51;;;;;;;10.40;6.75;;;;;;;;;;4977204;28;20037;-72
2021/12/06 02:07:19;;;;;;;12.10;6.50;;;;;;;;;;4988423;28;20014;-73
2021/12/06 02:09:46;;;;;;;8.63;5.65;;;;;;;;;;4989386;28;20057;-73
2021/12/06 02:12:11;;;;;;;8.57;5.40;;;;;;;;;;4985943;28;20817;-73
2021/12/06 02:17:14;;;;;;;8.45;5.45;;;;;;;;;;4981851;28;20102;-73
2021/12/06 02:19:43;;;;;;;9.88;5.47;;;;;;;;;;4980790;28;20030;-73
2021/12/06 02:22:10;;;;;;;8.73;5.82;;;;;;;;;;4985181;28;20041;-72
2021/12/06 02:24:37;;;;;;;8.02;5.97;;;;;;;;;;4991787;28;20049;-72
2021/12/06 02:27:03;;;;;;;10.65;6.80;;;;;;;;;;4998674;28;20110;-72
2021/12/06 02:29:28;;;;;;;8.90;6.22;;;;;;;;;;4990954;28;20110;-72
2021/12/06 02:31:53;;;;;;;10.38;6.40;;;;;;;;;;4989336;28;20485;-73
2021/12/06 02:34:19;;;;;;;9.40;6.63;;;;;;;;;;4983008;28;20497;-73
2021/12/06 02:36:46;;;;;;;11.73;7.03;;;;;;;;;;4989695;28;20504;-72
2021/12/06 02:39:18;;;;;;;10.70;7.05;;;;;;;;;;4979964;28;20106;-71
2021/12/06 02:41:46;;;;;;;12.52;6.78;;;;;;;;;;4988560;28;20444;-72
2021/12/06 02:44:11;;;;;;;14.48;7.07;;;;;;;;;;4966456;28;20026;-72
2021/12/06 02:46:37;;;;;;;11.57;7.35;;;;;;;;;;4984693;28;20099;-73
2021/12/06 02:49:03;;;;;;;13.43;7.18;;;;;;;;;;4987615;28;20112;-72
2021/12/06 02:51:28;;;;;;;12.60;7.55;;;;;;;;;;4989737;28;20033;-73
2021/12/06 02:53:54;;;;;;;15.15;7.95;;;;;;;;;;4988154;28;20034;-72
2021/12/06 02:56:34;;;;;;;11.32;7.38;;;;;;;;;;4986683;28;20038;-73
2021/12/06 02:59:06;;;;;;;14.88;7.35;;;;;;;;;;4986587;28;20030;-73
2021/12/06 03:01:40;;;;;;;12.23;7.82;;;;;;;;;;4985383;28;20031;-72
2021/12/06 03:04:06;;;;;;;8.90;6.90;;;;;;;;;;4986644;28;20549;-73
2021/12/06 03:06:31;;;;;;;12.38;8.27;;;;;;;;;;4987730;28;20115;-73
2021/12/06 03:09:07;;;;;;;12.82;7.65;;;;;;;;;;4989623;28;20080;-72
2021/12/06 03:11:43;;;;;;;11.90;7.05;;;;;;;;;;4989115;28;20030;-73
2021/12/06 03:14:10;;;;;;;11.80;7.97;;;;;;;;;;4981685;28;20057;-72
2021/12/06 03:16:36;;;;;;;17.73;9.32;;;;;;;;;;4983213;28;20342;-71
2021/12/06 03:19:01;;;;;;;19.15;10.15;;;;;;;;;;4990928;28;20089;-73
2021/12/06 03:21:27;;;;;;;16.02;9.48;;;;;;;;;;4992076;28;20030;-73
2021/12/06 03:23:54;;;;;;;14.13;9.05;;;;;;;;;;4990992;28;20029;-72
2021/12/06 03:26:19;;;;;;;16.98;9.48;;;;;;;;;;4988908;28;20022;-73
2021/12/06 03:28:44;;;;;;;14.30;8.90;;;;;;;;;;4988024;28;20049;-73
2021/12/06 03:31:11;;;;;;;11.43;7.57;;;;;;;;;;4990187;28;20070;-74
2021/12/06 03:33:37;;;;;;;12.57;8.60;;;;;;;;;;4988706;28;20022;-73
2021/12/06 03:36:06;;;;;;;11.90;8.15;;;;;;;;;;4984308;28;20021;-74
2021/12/06 03:38:32;;;;;;;14.65;8.85;;;;;;;;;;4983754;28;20033;-73
2021/12/06 03:40:57;;;;;;;10.07;7.53;;;;;;;;;;4986388;28;20481;-73
2021/12/06 03:43:23;;;;;;;12.38;8.20;;;;;;;;;;4985200;28;20029;-74
2021/12/06 03:45:48;;;;;;;15.27;8.32;;;;;;;;;;4987631;28;20037;-73
2021/12/06 03:48:13;;;;;;;13.40;7.80;;;;;;;;;;4988100;28;20022;-74
2021/12/06 03:50:39;;;;;;;12.32;7.55;;;;;;;;;;4983931;28;20026;-73
2021/12/06 03:53:04;;;;;;;11.13;7.80;;;;;;;;;;4988110;28;20027;-73
2021/12/06 03:55:29;;;;;;;10.35;7.35;;;;;;;;;;4988106;28;20019;-72
2021/12/06 03:57:55;;;;;;;9.35;7.45;;;;;;;;;;4981040;28;20102;-73
2021/12/06 04:00:20;;;;;;;9.43;6.90;;;;;;;;;;4985470;28;20044;-73
2021/12/06 04:02:45;;;;;;;11.88;7.20;;;;;;;;;;4988681;28;20455;-74
2021/12/06 04:05:11;;;;;;;10.30;7.20;;;;;;;;;;4981478;28;20038;-74
2021/12/06 04:07:36;;;;;;;11.20;7.55;;;;;;;;;;4977875;28;20026;-73
2021/12/06 04:10:04;;;;;;;12.95;8.07;;;;;;;;;;4996920;28;20101;-73
2021/12/06 04:12:29;;;;;;;11.25;7.60;;;;;;;;;;4987100;28;20026;-73
2021/12/06 04:14:56;;;;;;;10.90;8.05;;;;;;;;;;4988020;28;20037;-73
2021/12/06 04:17:21;;;;;;;11.00;7.43;;;;;;;;;;4986522;28;20084;-73
2021/12/06 04:19:46;;;;;;;10.82;7.20;;;;;;;;;;4986445;28;20105;-74
2021/12/06 04:22:12;;;;;;;15.02;7.43;;;;;;;;;;4989113;28;20177;-73
2021/12/06 04:24:38;;;;;;;11.25;7.22;;;;;;;;;;4987245;28;20080;-74
2021/12/06 04:27:13;;;;;;;13.23;8.00;;;;;;;;;;4987043;28;20042;-74
2021/12/06 04:29:39;;;;;;;10.55;7.35;;;;;;;;;;4983919;28;20030;-73
2021/12/06 04:32:05;;;;;;;10.55;7.28;;;;;;;;;;4984588;28;20039;-73
2021/12/06 04:34:30;;;;;;;13.68;7.25;;;;;;;;;;4988031;28;20168;-73
2021/12/06 04:36:55;;;;;;;11.73;6.85;;;;;;;;;;4983627;28;20027;-73
2021/12/06 04:39:21;;;;;;;16.38;7.38;;;;;;;;;;4985546;28;20034;-74
2021/12/06 04:41:46;;;;;;;10.15;6.97;;;;;;;;;;4992757;28;20026;-74
2021/12/06 04:44:12;;;;;;;9.82;6.78;;;;;;;;;;4974721;28;20088;-70
2021/12/06 04:46:37;;;;;;;9.70;7.07;;;;;;;;;;4990188;28;20058;-68
2021/12/06 04:49:03;;;;;;;10.40;6.72;;;;;;;;;;4987622;28;20026;-69
2021/12/06 04:51:28;;;;;;;8.52;6.90;;;;;;;;;;4988653;28;20557;-69
2021/12/06 04:53:54;;;;;;;11.30;7.63;;;;;;;;;;4988666;28;20029;-69
2021/12/06 04:56:21;;;;;;;8.25;6.88;;;;;;;;;;4992845;28;20034;-69
2021/12/06 04:59:03;;;;;;;9.27;7.05;;;;;;;;;;4991690;28;20030;-68
2021/12/06 05:01:29;;;;;;;9.93;7.07;;;;;;;;;;4989067;28;20038;-68
2021/12/06 05:04:00;;;;;;;7.93;6.53;;;;;;;;;;4984122;28;20054;-69
2021/12/06 05:06:27;;;;;;;9.32;6.63;;;;;;;;;;5003440;28;20382;-69
2021/12/06 05:08:55;;;;;;;9.20;7.15;;;;;;;;;;4990146;28;20073;-69
2021/12/06 05:11:22;;;;;;;8.57;6.57;;;;;;;;;;4990908;28;20030;-69
2021/12/06 05:13:48;;;;;;;11.30;7.60;;;;;;;;;;4991815;28;20496;-68
2021/12/06 05:16:13;;;;;;;9.90;7.40;;;;;;;;;;4992207;28;20026;-69
2021/12/06 05:18:38;;;;;;;9.77;7.00;;;;;;;;;;4988251;28;20038;-69
2021/12/06 05:21:04;;;;;;;8.55;7.10;;;;;;;;;;4974866;28;20037;-69
2021/12/06 05:23:29;;;;;;;8.57;6.70;;;;;;;;;;4988709;28;20026;-68
2021/12/06 05:25:54;;;;;;;9.52;6.85;;;;;;;;;;4986120;28;20532;-69
2021/12/06 05:28:25;;;;;;;7.65;5.88;;;;;;;;;;4984605;28;20497;-68
2021/12/06 05:30:54;;;;;;;11.23;7.30;;;;;;;;;;4986039;28;20050;-69
2021/12/06 05:33:28;;;;;;;11.40;7.45;;;;;;;;;;4986877;28;20027;-68
2021/12/06 05:35:54;;;;;;;;;;;;;;;;;;4986282;28;20015;-69
2021/12/06 05:38:19;;;;;;;9.90;6.75;;;;;;;;;;4975302;28;19917;-68
2021/12/06 05:40:46;;;;;;;11.73;7.70;;;;;;;;;;4981548;28;20501;-68
2021/12/06 05:43:12;;;;;;;7.15;5.93;;;;;;;;;;4984996;28;20061;-68
2021/12/06 05:45:37;;;;;;;9.70;6.78;;;;;;;;;;4988006;28;20068;-68
2021/12/06 05:48:03;;;;;;;9.23;7.20;;;;;;;;;;4983689;28;21497;-68
2021/12/06 05:50:28;;;;;;;9.27;7.18;;;;;;;;;;4980034;28;20026;-69
2021/12/06 05:52:55;;;;;;;9.98;6.82;;;;;;;;;;4975487;28;20030;-69
2021/12/06 05:55:21;;;;;;;10.60;7.93;;;;;;;;;;4979916;28;20539;-69
2021/12/06 05:57:47;;;;;;;8.93;6.88;;;;;;;;;;4991638;28;20022;-69
2021/12/06 06:00:14;;;;;;;10.68;8.18;;;;;;;;;;4981239;28;20401;-69
2021/12/06 06:02:39;;;;;;;11.05;7.43;;;;;;;;;;4981596;28;20171;-69
2021/12/06 06:05:05;;;;;;;9.55;7.70;;;;;;;;;;4986707;28;20567;-68
2021/12/06 06:07:31;;;;;;;12.90;8.38;;;;;;;;;;4981150;28;20075;-69
2021/12/06 06:09:56;;;;;;;11.45;8.43;;;;;;;;;;4976534;28;20027;-69
2021/12/06 06:12:21;;;;;;;10.77;8.07;;;;;;;;;;4986421;28;20033;-69
2021/12/06 06:14:47;;;;;;;10.70;7.28;;;;;;;;;;4983973;28;20026;-69
2021/12/06 06:17:13;;;;;;;8.82;6.70;;;;;;;;;;4977349;28;20029;-69
2021/12/06 06:19:43;;;;;;;11.38;7.80;;;;;;;;;;4988165;28;20023;-69
2021/12/06 06:22:08;;;;;;;10.35;7.82;;;;;;;;;;4984764;28;20058;-69
2021/12/06 06:24:34;;;;;;;11.73;8.40;;;;;;;;;;4982626;28;20058;-69
2021/12/06 06:26:59;;;;;;;23.73;12.63;;;;;;;;;;4981992;28;20061;-69
2021/12/06 06:29:24;;;;;;;16.85;10.32;;;;;;;;;;4977129;28;20101;-68
2021/12/06 06:31:50;;;;;;;15.52;10.30;;;;;;;;;;4982488;28;20041;-68
2021/12/06 06:34:15;;;;;;;14.65;9.80;;;;;;;;;;4981611;28;20038;-69
2021/12/06 06:36:40;;;;;;;13.45;9.05;;;;;;;;;;4986126;28;20109;-69
2021/12/06 06:39:07;;;;;;;17.40;10.15;;;;;;;;;;4989313;28;20058;-69
2021/12/06 06:41:32;;;;;;;15.48;10.18;;;;;;;;;;4983888;28;20398;-69
2021/12/06 06:43:58;;;;;;;16.42;10.40;;;;;;;;;;4972528;28;20030;-69
2021/12/06 06:46:23;;;;;;;14.88;9.77;;;;;;;;;;4981093;28;20105;-68
2021/12/06 06:48:48;;;;;;;18.90;10.98;;;;;;;;;;4988112;28;20034;-69
2021/12/06 06:51:14;;;;;;;20.13;11.90;;;;;;;;;;4988044;28;20077;-69
2021/12/06 06:53:39;;;;;;;18.33;10.40;;;;;;;;;;4978608;28;20031;-69
2021/12/06 06:56:04;;;;;;;20.25;12.50;;;;;;;;;;4986363;28;20081;-69
2021/12/06 06:58:30;;;;;;;24.88;13.25;;;;;;;;;;4987986;28;20022;-69
2021/12/06 07:00:56;;;;;;;19.95;11.90;;;;;;;;;;4987784;28;20034;-69
2021/12/06 07:03:21;;;;;;;21.23;12.35;;;;;;;;;;4986505;28;20038;-69
2021/12/06 07:05:46;;;;;;;26.90;14.98;;;;;;;;;;4975237;28;20110;-69
2021/12/06 07:08:12;;;;;;;24.05;14.40;;;;;;;;;;4998142;28;20100;-69
2021/12/06 07:10:37;;;;;;;24.35;13.30;;;;;;;;;;4985640;28;20135;-69
2021/12/06 07:13:08;;;;;;;20.27;11.48;;;;;;;;;;4986342;28;20026;-69
2021/12/06 07:15:33;;;;;;;18.08;11.07;;;;;;;;;;4978195;28;20034;-69
2021/12/06 07:17:59;;;;;;;18.10;11.30;;;;;;;;;;4990116;28;20026;-69
2021/12/06 07:20:25;;;;;;;18.52;10.48;;;;;;;;;;4976388;28;20037;-69
2021/12/06 07:22:52;;;;;;;22.13;12.43;;;;;;;;;;4985143;28;20037;-69
2021/12/06 07:25:18;;;;;;;23.10;12.85;;;;;;;;;;4984023;28;20022;-69
2021/12/06 07:27:44;;;;;;;24.23;12.63;;;;;;;;;;4980250;28;20477;-69
2021/12/06 07:30:09;;;;;;;22.63;13.50;;;;;;;;;;4979477;28;20069;-70
2021/12/06 07:32:35;;;;;;;21.80;12.50;;;;;;;;;;4977799;28;20030;-69
2021/12/06 07:35:00;;;;;;;21.85;13.63;;;;;;;;;;4987732;28;20034;-69
2021/12/06 07:37:25;;;;;;;21.27;12.88;;;;;;;;;;4983262;28;20076;-69
2021/12/06 07:39:51;;;;;;;21.17;12.32;;;;;;;;;;4984662;28;20026;-69
2021/12/06 07:42:16;;;;;;;24.58;13.52;;;;;;;;;;4988026;28;20108;-69
2021/12/06 07:44:42;;;;;;;21.85;13.50;;;;;;;;;;4988899;28;20607;-69
2021/12/06 07:47:08;;;;;;;23.13;13.80;;;;;;;;;;4985263;28;20029;-69
2021/12/06 07:49:33;;;;;;;23.00;13.23;;;;;;;;;;4986160;28;20086;-69
2021/12/06 07:52:02;;;;;;;26.73;14.50;;;;;;;;;;4986703;28;20018;-70
2021/12/06 07:54:27;;;;;;;28.90;15.40;;;;;;;;;;4983321;28;20052;-70
2021/12/06 07:56:52;;;;;;;25.27;14.48;;;;;;;;;;4986851;28;20109;-69
2021/12/06 07:59:18;;;;;;;21.13;12.75;;;;;;;;;;4971335;28;20114;-70
2021/12/06 08:01:43;;;;;;;35.15;18.35;;;;;;;;;;4975252;28;20063;-70
2021/12/06 08:04:09;;;;;;;38.38;17.95;;;;;;;;;;4978573;28;20179;-69
2021/12/06 08:06:34;;;;;;;34.35;18.27;;;;;;;;;;5001842;28;20385;-69
2021/12/06 08:08:59;;;;;;;31.70;16.45;;;;;;;;;;4983384;28;20477;-70
2021/12/06 08:11:25;;;;;;;20.42;12.90;;;;;;;;;;4980334;28;20097;-70
2021/12/06 08:13:54;;;;;;;19.88;11.57;;;;;;;;;;4992747;28;20481;-69
2021/12/06 08:16:20;;;;;;;22.02;13.07;;;;;;;;;;4983415;28;20092;-70
2021/12/06 08:18:46;;;;;;;21.10;13.23;;;;;;;;;;4994601;28;20049;-70
2021/12/06 08:21:12;;;;;;;21.05;12.80;;;;;;;;;;4994619;28;20042;-70
2021/12/06 08:23:37;;;;;;;20.63;11.80;;;;;;;;;;4991817;28;20113;-70
2021/12/06 08:26:04;;;;;;;22.88;13.30;;;;;;;;;;4988562;28;20470;-70
2021/12/06 08:28:31;;;;;;;23.02;13.18;;;;;;;;;;4986486;28;20022;-69
2021/12/06 08:30:56;;;;;;;19.63;12.43;;;;;;;;;;4982307;28;20486;-70
2021/12/06 08:33:23;;;;;;;22.08;13.30;;;;;;;;;;4994412;28;20117;-69
2021/12/06 08:35:52;;;;;;;22.38;12.82;;;;;;;;;;4992294;28;20030;-70
2021/12/06 08:38:18;;;;;;;21.15;12.90;;;;;;;;;;4990618;28;20022;-70
2021/12/06 08:40:44;;;;;;;25.65;13.63;;;;;;;;;;4991361;28;20488;-70
2021/12/06 08:43:16;;;;;;;26.23;13.55;;;;;;;;;;4974569;28;20080;-70
2021/12/06 08:45:42;;;;;;;27.02;14.15;;;;;;;;;;4991273;28;20061;-70
2021/12/06 08:48:07;;;;;;;25.17;14.00;;;;;;;;;;4986852;28;20023;-70
2021/12/06 08:50:33;;;;;;;28.70;14.77;;;;;;;;;;4989675;28;20434;-70
2021/12/06 08:52:58;;;;;;;19.80;12.70;;;;;;;;;;4985885;28;20057;-70
2021/12/06 08:55:24;;;;;;;18.15;11.18;;;;;;;;;;4989360;28;20116;-69
2021/12/06 08:57:50;;;;;;;19.25;11.43;;;;;;;;;;4985914;28;20057;-69
2021/12/06 09:00:19;;;;;;;45.88;23.23;;;;;;;;;;4986618;28;20030;-70
2021/12/06 09:02:44;;;;;;;33.25;17.83;;;;;;;;;;4989628;28;20085;-69
2021/12/06 09:05:10;;;;;;;24.67;13.00;;;;;;;;;;4988746;28;20632;-69
2021/12/06 09:07:35;;;;;;;22.13;14.40;;;;;;;;;;4987624;28;20030;-69
2021/12/06 09:10:00;;;;;;;22.42;13.65;;;;;;;;;;4990313;28;20049;-69
2021/12/06 09:12:28;;;;;;;22.27;12.60;;;;;;;;;;4992189;28;20030;-69
2021/12/06 09:14:54;;;;;;;21.58;13.38;;;;;;;;;;4991606;28;20026;-69
2021/12/06 09:17:19;;;;;;;25.85;14.32;;;;;;;;;;4985208;28;20106;-70
2021/12/06 09:19:45;;;;;;;21.92;13.13;;;;;;;;;;4984826;28;20057;-70
2021/12/06 09:22:10;;;;;;;19.50;12.23;;;;;;;;;;4983442;28;20461;-70
2021/12/06 09:24:35;;;;;;;17.52;11.43;;;;;;;;;;4989386;28;20424;-70
2021/12/06 09:27:01;;;;;;;20.23;11.38;;;;;;;;;;4987487;28;20038;-70
2021/12/06 09:29:27;;;;;;;19.95;11.88;;;;;;;;;;4987191;28;20024;-70
2021/12/06 09:31:53;;;;;;;20.85;12.02;;;;;;;;;;4988508;28;20424;-70
2021/12/06 09:34:19;;;;;;;19.40;12.05;;;;;;;;;;4982311;28;20027;-70
2021/12/06 09:36:45;;;;;;;23.73;12.55;;;;;;;;;;4986607;28;20029;-70
2021/12/06 09:39:11;;;;;;;20.27;12.35;;;;;;;;;;4983252;28;20101;-70
2021/12/06 09:41:36;;;;;;;19.88;12.85;;;;;;;;;;4983593;28;20030;-70
2021/12/06 09:44:03;;;;;;;24.70;14.25;;;;;;;;;;4992020;28;20054;-70
2021/12/06 09:46:33;;;;;;;16.75;11.30;;;;;;;;;;4981667;28;20042;-70
2021/12/06 09:48:59;;;;;;;27.13;11.02;;;;;;;;;;4987410;28;20030;-70
2021/12/06 09:51:25;;;;;;;17.80;10.77;;;;;;;;;;4971622;28;20037;-70
2021/12/06 09:53:51;;;;;;;21.42;12.60;;;;;;;;;;4991138;28;20394;-70
2021/12/06 09:56:28;;;;;;;19.63;12.30;;;;;;;;;;4982312;28;20082;-70
2021/12/06 09:58:53;;;;;;;19.02;11.43;;;;;;;;;;4985216;28;20077;-70
2021/12/06 10:01:24;;;;;;;19.65;11.23;;;;;;;;;;4990365;28;20493;-70
2021/12/06 10:03:50;;;;;;;15.30;10.60;;;;;;;;;;4987189;28;20057;-70
2021/12/06 10:06:16;;;;;;;14.02;10.07;;;;;;;;;;4985183;28;20054;-70
2021/12/06 10:08:44;;;;;;;15.25;9.88;;;;;;;;;;4989907;28;20057;-70
2021/12/06 10:11:09;;;;;;;17.45;11.48;;;;;;;;;;4986394;28;20489;-70
2021/12/06 10:13:35;;;;;;;16.35;10.20;;;;;;;;;;4985895;28;20026;-70
2021/12/06 10:16:00;;;;;;;17.30;11.90;;;;;;;;;;4988495;28;20031;-70
2021/12/06 10:18:26;;;;;;;29.98;17.98;;;;;;;;;;4986780;28;20114;-70
2021/12/06 10:20:51;;;;;;;23.58;13.63;;;;;;;;;;4986554;28;20474;-70
2021/12/06 10:23:17;;;;;;;23.13;14.45;;;;;;;;;;4985691;28;20027;-70
2021/12/06 10:25:44;;;;;;;19.58;12.80;;;;;;;;;;4989542;28;20030;-70
2021/12/06 10:28:10;;;;;;;17.77;11.20;;;;;;;;;;4989542;28;20373;-70
2021/12/06 10:30:38;;;;;;;15.60;10.98;;;;;;;;;;4985158;28;20034;-70
2021/12/06 10:33:14;;;;;;;15.45;10.65;;;;;;;;;;4971381;28;20065;-70
2021/12/06 10:35:45;;;;;;;14.07;9.85;;;;;;;;;;4986369;28;20034;-70
2021/12/06 10:38:11;;;;;;;16.90;10.52;;;;;;;;;;4989044;28;20031;-70
2021/12/06 10:40:40;;;;;;;19.45;10.35;;;;;;;;;;4986305;28;20072;-70
2021/12/06 10:43:07;;;;;;;23.83;10.75;;;;;;;;;;4987724;28;20408;-70
2021/12/06 10:45:42;;;;;;;16.80;10.75;;;;;;;;;;4988487;28;20026;-70
2021/12/06 10:48:29;;;;;;;16.98;10.57;;;;;;;;;;4980024;28;20042;-70
2021/12/06 10:50:55;;;;;;;17.20;9.90;;;;;;;;;;4986673;28;20018;-70
2021/12/06 10:53:37;;;;;;;15.63;10.02;;;;;;;;;;4986712;28;20033;-70
2021/12/06 10:56:04;;;;;;;17.50;10.50;;;;;;;;;;4989172;28;20436;-70
2021/12/06 10:58:29;;;;;;;16.58;10.23;;;;;;;;;;4981878;28;20365;-70
2021/12/06 11:01:12;;;;;;;18.45;10.65;;;;;;;;;;4980975;28;20034;-70
2021/12/06 11:03:45;;;;;;;16.98;9.77;;;;;;;;;;4985633;28;20113;-70
2021/12/06 11:06:18;;;;;;;20.13;10.45;;;;;;;;;;4984429;28;20125;-70
2021/12/06 11:08:43;;;;;;;17.20;9.80;;;;;;;;;;4970611;28;20037;-70
2021/12/06 11:11:11;;;;;;;15.45;9.30;;;;;;;;;;4989845;28;20030;-70
2021/12/06 11:13:38;;;;;;;13.18;9.05;;;;;;;;;;4986899;28;20027;-70
2021/12/06 11:16:11;;;;;;;13.95;8.65;;;;;;;;;;4988147;28;20026;-69
2021/12/06 11:18:45;;;;;;;11.57;8.75;;;;;;;;;;4986457;28;20026;-69
2021/12/06 11:21:31;;;;;;;14.57;8.57;;;;;;;;;;4983667;28;20042;-69
2021/12/06 11:24:07;;;;;;;16.55;10.23;;;;;;;;;;4982541;28;20041;-69
2021/12/06 11:26:35;;;;;;;17.25;11.40;;;;;;;;;;4985060;28;20482;-69
2021/12/06 11:29:09;;;;;;;19.23;11.93;;;;;;;;;;4986923;28;20030;-69
2021/12/06 11:31:34;;;;;;;22.38;13.00;;;;;;;;;;4987188;28;20046;-69
2021/12/06 11:34:02;;;;;;;24.25;15.15;;;;;;;;;;4987191;28;20030;-69
2021/12/06 11:36:30;;;;;;;22.58;14.02;;;;;;;;;;4988148;28;20408;-69
2021/12/06 11:39:05;;;;;;;21.25;12.52;;;;;;;;;;4986171;28;20061;-69
2021/12/06 11:41:30;;;;;;;16.80;11.02;;;;;;;;;;4988175;28;20496;-69
2021/12/06 11:43:58;;;;;;;16.63;10.13;;;;;;;;;;4988578;28;20050;-69
2021/12/06 11:46:31;;;;;;;14.82;9.27;;;;;;;;;;4989021;28;20023;-69
2021/12/06 11:48:56;;;;;;;15.63;9.50;;;;;;;;;;4991142;28;20022;-69
2021/12/06 11:51:22;;;;;;;11.50;6.93;;;;;;;;;;4988891;28;20080;-69
2021/12/06 11:53:50;;;;;;;10.13;6.45;;;;;;;;;;4993615;28;20226;-69
2021/12/06 11:56:18;;;;;;;7.63;5.70;;;;;;;;;;4992308;28;20031;-69
2021/12/06 11:59:00;;;;;;;7.72;5.45;;;;;;;;;;4988524;28;20042;-69
2021/12/06 12:01:27;;;;;;;8.30;5.82;;;;;;;;;;4988977;28;20034;-69
2021/12/06 12:04:03;;;;;;;11.25;6.38;;;;;;;;;;4988359;28;20037;-71
2021/12/06 12:06:35;;;;;;;9.82;6.00;;;;;;;;;;4987283;28;20085;-71
2021/12/06 12:09:03;;;;;;;8.02;5.82;;;;;;;;;;4991027;28;20261;-71
2021/12/06 12:11:29;;;;;;;9.20;6.10;;;;;;;;;;4988749;28;20030;-71
2021/12/06 12:13:56;;;;;;;9.15;5.68;;;;;;;;;;4991610;28;20110;-71
2021/12/06 12:16:21;;;;;;;9.23;5.88;;;;;;;;;;4994085;28;20053;-70
2021/12/06 12:18:47;;;;;;;9.82;5.80;;;;;;;;;;4994249;28;20061;-70
2021/12/06 12:21:12;;;;;;;9.27;5.30;;;;;;;;;;4990898;28;20065;-70
2021/12/06 12:23:38;;;;;;;7.88;5.47;;;;;;;;;;4989979;28;20034;-70
2021/12/06 12:26:11;;;;;;;7.10;5.22;;;;;;;;;;4987959;28;20022;-71
2021/12/06 12:29:01;;;;;;;6.95;5.60;;;;;;;;;;4991589;28;20030;-70
2021/12/06 12:31:28;;;;;;;8.48;5.80;;;;;;;;;;4984916;28;20054;-70
2021/12/06 12:33:55;;;;;;;9.82;6.10;;;;;;;;;;4992452;28;20026;-70
2021/12/06 12:36:20;;;;;;;9.90;5.75;;;;;;;;;;4992674;28;20022;-70
2021/12/06 12:38:47;;;;;;;9.25;5.80;;;;;;;;;;4990534;28;20488;-70
2021/12/06 12:41:14;;;;;;;8.35;5.70;;;;;;;;;;4988934;28;20481;-70
2021/12/06 12:43:52;;;;;;;7.80;5.47;;;;;;;;;;4983733;28;20031;-70
2021/12/06 12:46:23;;;;;;;8.52;5.38;;;;;;;;;;4984454;28;20034;-70
2021/12/06 12:48:55;;;;;;;10.07;6.72;;;;;;;;;;4981282;28;20038;-70
2021/12/06 12:51:32;;;;;;;8.27;6.10;;;;;;;;;;4993830;28;20034;-70
2021/12/06 12:54:16;;;;;;;9.07;5.95;;;;;;;;;;4985411;28;20026;-70
2021/12/06 12:57:05;;;;;;;9.18;6.00;;;;;;;;;;4989838;28;20477;-70
2021/12/06 12:59:30;;;;;;;7.57;5.28;;;;;;;;;;4981712;28;20038;-69
2021/12/06 13:02:18;;;;;;;9.15;5.97;;;;;;;;;;4993826;28;20513;-69
2021/12/06 13:04:58;;;;;;;10.13;6.47;;;;;;;;;;4986953;28;20530;-70
2021/12/06 13:07:24;;;;;;;8.82;5.90;;;;;;;;;;4991802;28;20022;-71
2021/12/06 13:09:49;;;;;;;10.80;6.32;;;;;;;;;;4994673;28;20041;-68
2021/12/06 13:12:16;;;;;;;8.05;5.78;;;;;;;;;;4994063;28;20026;-71
2021/12/06 13:14:46;;;;;;;7.68;5.90;;;;;;;;;;4994905;28;20034;-70
2021/12/06 13:17:22;;;;;;;6.93;5.55;;;;;;;;;;4993406;28;20026;-70
2021/12/06 13:22:15;;;;;;;7.95;5.25;;;;;;;;;;4991127;28;20026;-71
2021/12/06 13:24:41;;;;;;;6.93;5.20;;;;;;;;;;5009686;28;20034;-70
2021/12/06 13:27:32;;;;;;;7.25;5.03;;;;;;;;;;4991152;28;20070;-71
2021/12/06 13:30:18;;;;;;;5.47;4.85;;;;;;;;;;4999320;28;20382;-70
2021/12/06 13:32:51;;;;;;;5.85;4.88;;;;;;;;;;4988846;28;20038;-70
2021/12/06 13:35:18;;;;;;;5.60;4.82;;;;;;;;;;4993715;28;20070;-70
2021/12/06 13:37:57;;;;;;;6.80;5.22;;;;;;;;;;4993990;28;20128;-70
2021/12/06 13:40:23;;;;;;;6.93;5.20;;;;;;;;;;4987788;28;20026;-69
2021/12/06 13:42:48;;;;;;;6.63;5.15;;;;;;;;;;4993202;28;20107;-70
2021/12/06 13:45:17;;;;;;;6.38;5.15;;;;;;;;;;4990691;28;20076;-70
2021/12/06 13:47:47;;;;;;;10.15;5.15;;;;;;;;;;4993645;28;20427;-70
2021/12/06 13:50:14;;;;;;;6.72;5.25;;;;;;;;;;4972490;28;20072;-70
2021/12/06 13:52:40;;;;;;;8.75;5.40;;;;;;;;;;4993080;28;20111;-69
2021/12/06 13:55:28;;;;;;;7.75;5.15;;;;;;;;;;4988241;28;20018;-69
2021/12/06 13:58:00;;;;;;;6.45;4.80;;;;;;;;;;4990987;28;20027;-70
2021/12/06 14:00:28;;;;;;;6.88;5.00;;;;;;;;;;4992706;28;20061;-70
2021/12/06 14:02:59;;;;;;;5.38;4.70;;;;;;;;;;4976038;28;20030;-69
2021/12/06 14:05:24;;;;;;;6.40;5.00;;;;;;;;;;4990927;28;20084;-70
2021/12/06 14:07:50;;;;;;;7.53;4.47;;;;;;;;;;4992090;28;20022;-70
2021/12/06 14:10:16;;;;;;;5.93;5.00;;;;;;;;;;4991210;28;20023;-70
2021/12/06 14:12:41;;;;;;;6.30;4.70;;;;;;;;;;4993304;28;20034;-70
2021/12/06 14:15:55;;;;;;;6.05;4.70;;;;;;;;;;4992720;28;20384;-69
2021/12/06 14:17:54;;;;;;;5.97;4.80;;;;;;;;;;4985188;28;20069;-69
2021/12/06 14:20:19;;;;;;;6.60;5.03;;;;;;;;;;4991523;28;20055;-70
2021/12/06 14:22:44;;;;;;;7.57;5.65;;;;;;;;;;5004739;28;20022;-70
2021/12/06 14:25:13;;;;;;;9.30;6.20;;;;;;;;;;4993247;28;20034;-68
2021/12/06 14:27:38;;;;;;;8.43;5.40;;;;;;;;;;4990572;28;20041;-69
2021/12/06 14:30:13;;;;;;;6.97;4.80;;;;;;;;;;4985821;28;20038;-71
2021/12/06 14:32:46;;;;;;;6.15;4.25;;;;;;;;;;4990527;28;20039;-71
2021/12/06 14:35:11;;;;;;;4.80;3.95;;;;;;;;;;4984776;28;20033;-71
2021/12/06 14:37:36;;;;;;;5.82;3.60;;;;;;;;;;4992489;28;20026;-68
2021/12/06 14:40:02;;;;;;;7.13;4.50;;;;;;;;;;4988460;28;20133;-72
2021/12/06 14:42:29;;;;;;;5.75;4.15;;;;;;;;;;4987049;28;20362;-68
2021/12/06 14:44:57;;;;;;;6.22;4.38;;;;;;;;;;4969451;28;20037;-70
2021/12/06 14:47:41;;;;;;;5.30;4.65;;;;;;;;;;4992084;28;20052;-70